Terminal Aerodrome Forecast
Issued by NWS

Home | Current Version | Previous Version | Text Only | Print | Product List | Glossary On
Versions: 1 2 3 4 5 6 7 8 9 10 11 12
000
FTUS45 KVEF 311700
TAFDAG
TAF
KDAG 311737Z 3118/0118 29006KT P6SM FEW150 FEW250
     FM312300 24015G23KT P6SM BKN250
     FM010300 24020G30KT P6SM BKN200
     FM011000 25013G20KT P6SM BKN100
     FM011600 25020G30KT P6SM BKN100=

USA.gov is the U.S. government's official web portal to all federal, state and local government web resources and services.